createdAt,value
2024-05-09T00:00:18.493Z,10.98
2024-05-09T00:00:59.840Z,11.80
2024-05-09T00:01:33.720Z,11.98
2024-05-09T00:02:07.575Z,12.38
2024-05-09T00:02:44.285Z,10.98
2024-05-09T00:03:18.043Z,11.27
2024-05-09T00:03:51.919Z,10.82
2024-05-09T00:04:25.733Z,11.02
2024-05-09T00:04:59.705Z,10.95
2024-05-09T00:05:33.586Z,11.30
2024-05-09T00:06:10.450Z,12.68
2024-05-09T00:06:44.395Z,11.70
2024-05-09T00:07:18.234Z,12.60
2024-05-09T00:07:51.998Z,10.93
2024-05-09T00:08:25.971Z,12.18
2024-05-09T00:08:59.771Z,11.65
2024-05-09T00:09:33.709Z,10.57
2024-05-09T00:10:11.770Z,11.52
2024-05-09T00:10:52.088Z,12.57
2024-05-09T00:11:26.059Z,11.90
2024-05-09T00:12:00.061Z,11.07
2024-05-09T00:12:33.970Z,11.32
2024-05-09T00:13:08.566Z,11.98
2024-05-09T00:13:42.771Z,12.13
2024-05-09T00:14:16.562Z,11.85
2024-05-09T00:14:50.466Z,11.23
2024-05-09T00:15:24.491Z,11.15
2024-05-09T00:15:58.437Z,11.80
2024-05-09T00:16:32.382Z,12.55
2024-05-09T00:17:06.226Z,11.95
2024-05-09T00:17:40.536Z,10.30
2024-05-09T00:18:14.823Z,10.68
2024-05-09T00:18:48.815Z,11.70
2024-05-09T00:19:23.074Z,10.70
2024-05-09T00:19:56.947Z,11.38
2024-05-09T00:20:38.473Z,9.95
2024-05-09T00:21:15.000Z,10.75
2024-05-09T00:21:48.984Z,10.63
2024-05-09T00:22:22.826Z,10.98
2024-05-09T00:22:56.730Z,11.30
2024-05-09T00:23:30.929Z,11.82
2024-05-09T00:24:04.850Z,11.48
2024-05-09T00:24:38.592Z,11.48
2024-05-09T00:25:12.379Z,10.00
2024-05-09T00:25:46.703Z,9.93
2024-05-09T00:26:21.176Z,10.90
2024-05-09T00:26:55.104Z,9.85
2024-05-09T00:27:28.889Z,10.55
2024-05-09T00:28:02.702Z,11.40
2024-05-09T00:28:36.562Z,10.68
2024-05-09T00:29:10.455Z,11.32
2024-05-09T00:29:44.243Z,10.30
2024-05-09T00:30:24.476Z,10.75
2024-05-09T00:31:05.807Z,10.77
2024-05-09T00:31:39.824Z,11.13
2024-05-09T00:32:13.886Z,10.85
2024-05-09T00:32:47.892Z,10.95
2024-05-09T00:33:22.030Z,9.38
2024-05-09T00:33:56.064Z,9.95
2024-05-09T00:34:30.133Z,10.27
2024-05-09T00:35:04.014Z,11.18
2024-05-09T00:35:38.538Z,10.70
2024-05-09T00:36:12.683Z,11.65
2024-05-09T00:36:46.447Z,10.20
2024-05-09T00:37:21.116Z,11.70
2024-05-09T00:37:55.131Z,9.70
2024-05-09T00:38:29.192Z,11.73
2024-05-09T00:39:02.954Z,11.10
2024-05-09T00:39:36.731Z,11.07
2024-05-09T00:40:18.308Z,11.85
2024-05-09T00:40:56.638Z,12.50
2024-05-09T00:41:30.553Z,10.70
2024-05-09T00:42:04.813Z,11.40
2024-05-09T00:42:39.712Z,10.77
2024-05-09T00:43:15.050Z,11.32
2024-05-09T00:43:49.364Z,12.10
2024-05-09T00:44:23.293Z,12.35
2024-05-09T00:44:57.135Z,12.18
2024-05-09T00:45:30.927Z,10.57
2024-05-09T00:46:04.978Z,11.13
2024-05-09T00:46:39.266Z,10.15
2024-05-09T00:47:13.802Z,11.88
2024-05-09T00:47:48.377Z,10.68
2024-05-09T00:48:22.865Z,10.75
2024-05-09T00:48:57.407Z,12.38
2024-05-09T00:49:32.716Z,13.27
2024-05-09T00:50:12.625Z,10.98
2024-05-09T00:50:50.689Z,11.30
2024-05-09T00:51:24.585Z,11.18
2024-05-09T00:51:59.041Z,11.10
2024-05-09T00:52:32.939Z,11.40
2024-05-09T00:53:13.959Z,12.35
2024-05-09T00:53:48.421Z,11.52
2024-05-09T00:54:22.949Z,10.55
2024-05-09T00:54:58.290Z,12.82
2024-05-09T00:55:32.266Z,11.30
2024-05-09T00:56:06.911Z,11.45
2024-05-09T00:56:42.280Z,11.30
2024-05-09T00:57:19.329Z,14.32
2024-05-09T00:57:53.552Z,12.02
2024-05-09T00:58:31.163Z,12.15
2024-05-09T00:59:05.182Z,11.25
2024-05-09T00:59:39.866Z,11.55
2024-05-09T01:00:22.610Z,11.27
2024-05-09T01:01:05.632Z,10.13
2024-05-09T01:01:39.677Z,10.57
2024-05-09T01:02:14.150Z,10.20
2024-05-09T01:02:48.952Z,11.73
2024-05-09T01:03:23.218Z,11.15
2024-05-09T01:03:57.673Z,10.30
2024-05-09T01:04:31.655Z,10.75
2024-05-09T01:05:06.141Z,11.32
2024-05-09T01:05:40.846Z,11.30
2024-05-09T01:06:14.946Z,12.77
2024-05-09T01:06:49.328Z,11.52
2024-05-09T01:07:23.156Z,11.30
2024-05-09T01:07:56.950Z,10.75
2024-05-09T01:08:31.145Z,11.88
2024-05-09T01:09:06.312Z,11.07
2024-05-09T01:09:40.202Z,11.45
2024-05-09T01:10:20.926Z,11.65
2024-05-09T01:10:58.054Z,12.93
2024-05-09T01:11:41.593Z,10.38
2024-05-09T01:12:15.574Z,11.25
2024-05-09T01:12:49.436Z,10.45
2024-05-09T01:13:23.256Z,11.05
2024-05-09T01:13:57.193Z,12.27
2024-05-09T01:14:31.127Z,10.77
2024-05-09T01:15:05.193Z,11.15
2024-05-09T01:15:39.053Z,11.05
2024-05-09T01:16:14.915Z,12.18
2024-05-09T01:16:48.905Z,11.18
2024-05-09T01:17:22.914Z,11.18
2024-05-09T01:17:57.667Z,12.45
2024-05-09T01:18:32.060Z,11.40
2024-05-09T01:19:13.091Z,10.63
2024-05-09T01:19:47.785Z,11.48
2024-05-09T01:20:31.769Z,10.52
2024-05-09T01:21:14.174Z,10.52
2024-05-09T01:21:48.279Z,10.07
2024-05-09T01:22:23.606Z,11.52
2024-05-09T01:22:59.145Z,10.35
2024-05-09T01:23:33.123Z,10.63
2024-05-09T01:24:07.346Z,11.82
2024-05-09T01:24:41.194Z,10.13
2024-05-09T01:26:06.683Z,10.70
2024-05-09T01:26:40.600Z,11.23
2024-05-09T01:27:14.462Z,9.85
2024-05-09T01:27:48.240Z,10.30
2024-05-09T01:28:22.024Z,10.23
2024-05-09T01:28:55.837Z,10.85
2024-05-09T01:29:29.790Z,11.60
2024-05-09T01:30:08.980Z,9.77
2024-05-09T01:30:43.261Z,11.52
2024-05-09T01:31:17.077Z,9.98
2024-05-09T01:31:52.985Z,11.80
2024-05-09T01:32:27.106Z,10.25
2024-05-09T01:33:01.428Z,9.95
2024-05-09T01:33:35.523Z,10.93
2024-05-09T01:34:09.510Z,9.52
2024-05-09T01:34:43.363Z,11.20
2024-05-09T01:35:18.584Z,11.32
2024-05-09T01:35:52.482Z,10.90
2024-05-09T01:36:26.192Z,10.18
2024-05-09T01:37:00.061Z,10.18
2024-05-09T01:37:33.909Z,11.07
2024-05-09T01:38:08.615Z,11.32
2024-05-09T01:38:42.508Z,10.82
2024-05-09T01:39:16.356Z,10.07
2024-05-09T01:39:50.081Z,11.13
2024-05-09T01:40:33.341Z,12.23
2024-05-09T01:41:11.497Z,9.93
2024-05-09T01:41:45.283Z,10.75
2024-05-09T01:42:19.157Z,10.40
2024-05-09T01:42:53.032Z,10.63
2024-05-09T01:43:26.990Z,11.77
2024-05-09T01:44:00.814Z,10.20
2024-05-09T01:44:34.717Z,9.88
2024-05-09T01:45:10.020Z,10.43
2024-05-09T01:45:44.069Z,10.82
2024-05-09T01:46:19.778Z,10.93
2024-05-09T01:46:53.609Z,11.10
2024-05-09T01:47:27.771Z,10.63
2024-05-09T01:48:02.524Z,10.38
2024-05-09T01:48:36.875Z,10.57
2024-05-09T01:49:10.739Z,10.10
2024-05-09T01:49:44.695Z,10.07
2024-05-09T01:50:25.139Z,10.63
2024-05-09T01:51:02.690Z,9.57
2024-05-09T01:51:36.691Z,10.90
2024-05-09T01:52:10.995Z,10.63
2024-05-09T01:52:44.883Z,9.25
2024-05-09T01:53:18.869Z,10.18
2024-05-09T01:53:55.534Z,10.07
2024-05-09T01:54:29.717Z,10.57
2024-05-09T01:55:06.244Z,11.32
2024-05-09T01:55:40.947Z,9.70
2024-05-09T01:56:14.991Z,9.75
2024-05-09T01:56:48.839Z,10.13
2024-05-09T01:57:22.701Z,9.82
2024-05-09T01:57:56.542Z,10.52
2024-05-09T01:58:31.312Z,11.63
2024-05-09T01:59:06.850Z,10.18
2024-05-09T01:59:40.838Z,10.38
2024-05-09T02:00:22.150Z,10.55
2024-05-09T02:01:03.653Z,10.60
2024-05-09T02:01:56.284Z,10.75
2024-05-09T02:02:31.724Z,10.95
2024-05-09T02:03:06.048Z,11.63
2024-05-09T02:03:40.106Z,11.20
2024-05-09T02:04:14.550Z,10.15
2024-05-09T02:04:49.268Z,10.82
2024-05-09T02:05:23.405Z,10.73
2024-05-09T02:05:57.403Z,11.40
2024-05-09T02:06:31.283Z,10.20
2024-05-09T02:07:06.323Z,10.82
2024-05-09T02:07:40.206Z,11.27
2024-05-09T02:08:18.938Z,11.13
2024-05-09T02:09:26.658Z,10.25
2024-05-09T02:10:00.647Z,10.82
2024-05-09T02:10:34.659Z,10.65
2024-05-09T02:11:09.607Z,10.07
2024-05-09T02:11:48.583Z,10.32
2024-05-09T02:12:22.667Z,10.65
2024-05-09T02:12:56.532Z,11.68
2024-05-09T02:13:30.355Z,10.82
2024-05-09T02:14:04.282Z,9.95
2024-05-09T02:14:38.355Z,10.10
2024-05-09T02:15:12.199Z,9.40
2024-05-09T02:15:46.048Z,10.05
2024-05-09T02:16:19.963Z,10.30
2024-05-09T02:16:54.129Z,10.07
2024-05-09T02:17:28.139Z,9.60
2024-05-09T02:18:02.477Z,10.05
2024-05-09T02:18:38.941Z,11.05
2024-05-09T02:19:13.126Z,9.73
2024-05-09T02:19:47.288Z,10.15
2024-05-09T02:20:30.206Z,10.55
2024-05-09T02:21:11.300Z,9.95
2024-05-09T02:21:45.183Z,10.60
2024-05-09T02:22:19.173Z,10.45
2024-05-09T02:22:53.298Z,11.25
2024-05-09T02:23:27.214Z,11.32
2024-05-09T02:24:01.658Z,10.68
2024-05-09T02:24:35.634Z,10.43
2024-05-09T02:25:09.503Z,9.52
2024-05-09T02:25:43.504Z,10.43
2024-05-09T02:26:17.825Z,10.52
2024-05-09T02:26:51.681Z,11.00
2024-05-09T02:27:25.526Z,11.48
2024-05-09T02:27:59.546Z,9.70
2024-05-09T02:28:33.676Z,10.20
2024-05-09T02:29:07.641Z,10.57
2024-05-09T02:29:41.637Z,9.77
2024-05-09T02:30:22.806Z,10.55
2024-05-09T02:31:04.266Z,11.30
2024-05-09T02:31:38.285Z,10.60
2024-05-09T02:32:12.344Z,9.48
2024-05-09T02:32:46.819Z,11.48
2024-05-09T02:33:21.000Z,11.65
2024-05-09T02:33:55.372Z,10.55
2024-05-09T02:34:29.428Z,11.13
2024-05-09T02:35:03.487Z,10.55
2024-05-09T02:35:37.587Z,10.07
2024-05-09T02:36:13.148Z,10.55
2024-05-09T02:36:47.218Z,9.93
2024-05-09T02:37:21.164Z,10.48
2024-05-09T02:37:55.040Z,9.93
2024-05-09T02:38:28.967Z,10.32
2024-05-09T02:39:02.887Z,10.68
2024-05-09T02:39:36.729Z,10.82
2024-05-09T02:40:14.718Z,10.40
2024-05-09T02:40:52.037Z,10.90
2024-05-09T02:41:25.871Z,9.32
2024-05-09T02:41:59.840Z,10.57
2024-05-09T02:42:33.679Z,11.20
2024-05-09T02:43:09.940Z,10.63
2024-05-09T02:43:44.974Z,10.68
2024-05-09T02:44:18.929Z,9.50
2024-05-09T02:44:52.744Z,10.18
2024-05-09T02:45:26.642Z,10.40
2024-05-09T02:46:00.475Z,10.02
2024-05-09T02:46:35.999Z,9.88
2024-05-09T02:47:10.153Z,9.85
2024-05-09T02:47:44.270Z,10.00
2024-05-09T02:48:18.862Z,10.50
2024-05-09T02:48:52.998Z,9.57
2024-05-09T02:49:26.884Z,9.50
2024-05-09T02:50:01.075Z,10.57
2024-05-09T02:50:39.050Z,9.70
2024-05-09T02:51:14.044Z,10.30
2024-05-09T02:51:48.020Z,9.27
2024-05-09T02:52:22.050Z,9.95
2024-05-09T02:52:56.039Z,10.20
2024-05-09T02:53:29.904Z,10.00
2024-05-09T02:54:03.830Z,10.32
2024-05-09T02:54:40.283Z,9.30
2024-05-09T02:55:14.360Z,10.63
2024-05-09T02:55:48.279Z,11.73
2024-05-09T02:56:22.283Z,10.57
2024-05-09T02:56:56.178Z,10.23
2024-05-09T02:57:30.044Z,9.18
2024-05-09T02:58:03.955Z,9.38
2024-05-09T02:58:37.953Z,11.07
2024-05-09T02:59:11.807Z,10.07
2024-05-09T02:59:45.696Z,10.15
2024-05-09T03:00:26.256Z,10.20
2024-05-09T03:01:08.300Z,11.88
2024-05-09T03:01:42.196Z,11.82
2024-05-09T03:02:16.090Z,10.80
2024-05-09T03:02:50.232Z,10.18
2024-05-09T03:03:24.641Z,11.50
2024-05-09T03:03:58.975Z,11.25
2024-05-09T03:04:32.896Z,12.32
2024-05-09T03:05:07.115Z,9.65
2024-05-09T03:05:41.314Z,9.50
2024-05-09T03:06:15.566Z,11.38
2024-05-09T03:06:50.624Z,10.73
2024-05-09T03:07:24.577Z,10.95
2024-05-09T03:07:58.485Z,11.93
2024-05-09T03:08:33.100Z,10.25
2024-05-09T03:09:09.923Z,11.38
2024-05-09T03:09:49.819Z,10.73
2024-05-09T03:10:28.494Z,11.50
2024-05-09T03:11:03.142Z,10.63
2024-05-09T03:11:37.465Z,10.60
2024-05-09T03:12:11.813Z,10.45
2024-05-09T03:12:46.087Z,10.65
2024-05-09T03:13:20.100Z,9.65
2024-05-09T03:13:55.771Z,10.35
2024-05-09T03:14:30.249Z,10.75
2024-05-09T03:15:04.222Z,10.60
2024-05-09T03:15:38.056Z,9.68
2024-05-09T03:16:11.931Z,10.32
2024-05-09T03:16:46.094Z,10.00
2024-05-09T03:17:20.035Z,11.23
2024-05-09T03:17:54.014Z,10.45
2024-05-09T03:18:28.042Z,9.68
2024-05-09T03:19:02.294Z,9.80
2024-05-09T03:19:39.179Z,10.15
2024-05-09T03:20:20.527Z,9.10
2024-05-09T03:20:58.002Z,10.98
2024-05-09T03:21:32.053Z,9.48
2024-05-09T03:22:06.343Z,9.80
2024-05-09T03:22:40.864Z,10.90
2024-05-09T03:23:14.883Z,9.32
2024-05-09T03:23:48.903Z,10.05
2024-05-09T03:24:23.211Z,10.73
2024-05-09T03:24:56.970Z,9.95
2024-05-09T03:25:30.972Z,9.70
2024-05-09T03:26:04.989Z,9.70
2024-05-09T03:26:39.240Z,8.82
2024-05-09T03:27:13.162Z,10.20
2024-05-09T03:27:46.938Z,9.65
2024-05-09T03:28:20.800Z,9.93
2024-05-09T03:28:54.656Z,10.32
2024-05-09T03:29:28.597Z,9.23
2024-05-09T03:30:05.491Z,9.07
2024-05-09T03:30:43.001Z,10.90
2024-05-09T03:31:20.031Z,8.73
2024-05-09T03:31:53.955Z,9.77
2024-05-09T03:32:28.091Z,8.20
2024-05-09T03:33:02.158Z,8.85
2024-05-09T03:33:37.680Z,9.95
2024-05-09T03:34:12.398Z,9.80
2024-05-09T03:34:46.296Z,9.88
2024-05-09T03:35:20.370Z,9.82
2024-05-09T03:35:54.227Z,8.43
2024-05-09T03:36:28.035Z,10.23
2024-05-09T03:37:01.858Z,10.20
2024-05-09T03:37:35.753Z,11.13
2024-05-09T03:38:09.857Z,12.10
2024-05-09T03:38:44.018Z,10.48
2024-05-09T03:39:18.054Z,10.30
2024-05-09T03:39:51.837Z,10.38
2024-05-09T03:40:28.972Z,9.50
2024-05-09T03:41:04.657Z,10.32
2024-05-09T03:41:38.567Z,9.95
2024-05-09T03:42:12.574Z,8.98
2024-05-09T03:42:46.362Z,11.02
2024-05-09T03:43:20.830Z,10.73
2024-05-09T03:43:54.764Z,10.05
2024-05-09T03:44:28.709Z,9.23
2024-05-09T03:45:02.624Z,9.65
2024-05-09T03:45:36.818Z,9.55
2024-05-09T03:46:10.632Z,10.35
2024-05-09T03:46:44.585Z,9.35
2024-05-09T03:47:18.533Z,10.75
2024-05-09T03:47:52.879Z,11.15
2024-05-09T03:48:26.952Z,10.98
2024-05-09T03:49:00.970Z,9.85
2024-05-09T03:49:34.856Z,10.82
2024-05-09T03:50:15.181Z,10.85
2024-05-09T03:50:52.141Z,10.95
2024-05-09T03:51:26.026Z,10.27
2024-05-09T03:52:05.445Z,10.80
2024-05-09T03:52:39.645Z,9.88
2024-05-09T03:53:15.108Z,11.00
2024-05-09T03:53:49.088Z,9.85
2024-05-09T03:54:22.984Z,11.18
2024-05-09T03:54:56.815Z,10.52
2024-05-09T03:55:31.619Z,9.65
2024-05-09T03:56:09.234Z,10.77
2024-05-09T03:56:43.166Z,9.65
2024-05-09T03:57:17.043Z,10.07
2024-05-09T03:57:50.936Z,10.40
2024-05-09T03:58:24.812Z,9.77
2024-05-09T03:58:59.249Z,11.68
2024-05-09T03:59:33.258Z,9.70
2024-05-09T04:00:14.841Z,10.60
2024-05-09T04:00:55.840Z,11.50
2024-05-09T04:01:30.599Z,10.63
2024-05-09T04:02:07.092Z,10.93
2024-05-09T04:02:49.022Z,10.60
2024-05-09T04:03:23.147Z,10.52
2024-05-09T04:03:57.823Z,10.60
2024-05-09T04:04:31.767Z,11.38
2024-05-09T04:05:06.038Z,10.27
2024-05-09T04:05:41.926Z,10.73
2024-05-09T04:06:22.233Z,10.85
2024-05-09T04:06:56.117Z,10.63
2024-05-09T04:07:29.993Z,10.95
2024-05-09T04:08:04.117Z,11.90
2024-05-09T04:08:38.204Z,11.20
2024-05-09T04:09:12.167Z,11.52
2024-05-09T04:09:45.917Z,11.10
2024-05-09T04:10:27.720Z,10.80
2024-05-09T04:11:07.915Z,10.90
2024-05-09T04:11:41.888Z,12.13
2024-05-09T04:12:16.081Z,10.52
2024-05-09T04:12:49.913Z,11.13
2024-05-09T04:13:23.953Z,11.05
2024-05-09T04:13:57.758Z,10.88
2024-05-09T04:14:31.786Z,11.05
2024-05-09T04:15:07.017Z,10.98
2024-05-09T04:15:42.048Z,10.88
2024-05-09T04:16:15.942Z,10.82
2024-05-09T04:16:49.811Z,11.35
2024-05-09T04:17:23.676Z,11.40
2024-05-09T04:17:57.774Z,10.95
2024-05-09T04:18:31.893Z,11.30
2024-05-09T04:19:05.835Z,11.35
2024-05-09T04:19:39.835Z,10.95
2024-05-09T04:20:24.166Z,11.40
2024-05-09T04:21:07.786Z,11.13
2024-05-09T04:21:41.779Z,10.30
2024-05-09T04:22:15.630Z,10.10
2024-05-09T04:22:49.621Z,10.40
2024-05-09T04:23:23.711Z,10.43
2024-05-09T04:23:57.573Z,10.70
2024-05-09T04:24:31.346Z,11.40
2024-05-09T04:25:05.480Z,10.95
2024-05-09T04:25:39.426Z,11.10
2024-05-09T04:26:14.504Z,11.20
2024-05-09T04:26:48.316Z,11.00
2024-05-09T04:27:22.229Z,10.73
2024-05-09T04:27:56.502Z,12.15
2024-05-09T04:28:30.328Z,9.65
2024-05-09T04:29:04.461Z,11.10
2024-05-09T04:29:38.422Z,11.13
2024-05-09T04:30:19.078Z,11.27
2024-05-09T04:31:00.143Z,10.55
2024-05-09T04:31:38.266Z,10.55
2024-05-09T04:32:12.197Z,9.93
2024-05-09T04:32:46.239Z,10.02
2024-05-09T04:33:21.250Z,11.07
2024-05-09T04:33:55.373Z,10.00
2024-05-09T04:34:29.389Z,9.43
2024-05-09T04:35:03.679Z,11.07
2024-05-09T04:35:37.696Z,9.80
2024-05-09T04:36:11.660Z,9.70
2024-05-09T04:36:45.506Z,10.95
2024-05-09T04:37:19.349Z,10.32
2024-05-09T04:37:53.237Z,9.85
2024-05-09T04:38:27.202Z,9.25
2024-05-09T04:39:01.025Z,10.80
2024-05-09T04:39:34.826Z,9.23
2024-05-09T04:40:17.159Z,10.82
2024-05-09T04:40:57.573Z,9.73
2024-05-09T04:41:32.100Z,10.27
2024-05-09T04:42:06.275Z,11.25
2024-05-09T04:42:42.384Z,10.13
2024-05-09T04:43:17.819Z,10.57
2024-05-09T04:43:51.705Z,9.93
2024-05-09T04:44:25.839Z,9.80
2024-05-09T04:44:59.668Z,10.13
2024-05-09T04:45:33.533Z,9.55
2024-05-09T04:46:07.311Z,9.27
2024-05-09T04:46:41.222Z,9.50
2024-05-09T04:47:15.277Z,9.15
2024-05-09T04:47:49.279Z,9.43
2024-05-09T04:48:23.423Z,10.02
2024-05-09T04:48:57.469Z,9.20
2024-05-09T04:49:31.504Z,10.07
2024-05-09T04:50:11.160Z,11.25
2024-05-09T04:50:45.296Z,9.20
2024-05-09T04:51:19.075Z,10.30
2024-05-09T04:51:53.259Z,10.20
2024-05-09T04:52:27.019Z,10.30
2024-05-09T04:53:01.023Z,11.02
2024-05-09T04:53:34.935Z,11.60
2024-05-09T04:54:15.617Z,11.27
2024-05-09T04:54:58.534Z,10.50
2024-05-09T04:55:32.702Z,11.35
2024-05-09T04:56:07.737Z,11.63
2024-05-09T04:56:41.559Z,9.82
2024-05-09T04:57:15.415Z,10.15
2024-05-09T04:57:49.209Z,10.07
2024-05-09T04:58:23.081Z,9.45
2024-05-09T04:58:56.865Z,10.02
2024-05-09T04:59:30.748Z,10.15
2024-05-09T05:00:09.344Z,10.45
2024-05-09T05:00:47.968Z,10.50
2024-05-09T05:01:21.944Z,11.40
2024-05-09T05:01:55.839Z,10.63
2024-05-09T05:02:29.744Z,10.27
2024-05-09T05:03:07.023Z,10.85
2024-05-09T05:03:42.352Z,9.40
2024-05-09T05:04:16.545Z,9.77
2024-05-09T05:04:50.545Z,10.40
2024-05-09T05:05:24.457Z,10.63
2024-05-09T05:05:58.400Z,10.15
2024-05-09T05:06:32.490Z,10.02
2024-05-09T05:07:06.521Z,10.68
2024-05-09T05:07:40.416Z,10.05
2024-05-09T05:08:15.039Z,10.48
2024-05-09T05:08:49.278Z,10.10
2024-05-09T05:09:23.144Z,9.75
2024-05-09T05:09:56.970Z,8.95
2024-05-09T05:10:35.808Z,10.20
2024-05-09T05:11:13.590Z,9.82
2024-05-09T05:11:47.609Z,9.40
2024-05-09T05:12:39.850Z,9.75
2024-05-09T05:13:18.650Z,10.18
2024-05-09T05:13:53.180Z,8.70
2024-05-09T05:14:27.256Z,9.73
2024-05-09T05:15:01.127Z,8.95
2024-05-09T05:15:35.097Z,9.75
2024-05-09T05:16:09.069Z,9.98
2024-05-09T05:16:42.852Z,8.43
2024-05-09T05:17:16.766Z,10.05
2024-05-09T05:17:50.703Z,10.32
2024-05-09T05:18:25.295Z,8.93
2024-05-09T05:18:59.342Z,10.02
2024-05-09T05:19:33.403Z,9.63
2024-05-09T05:20:08.757Z,10.18
2024-05-09T05:20:44.722Z,9.02
2024-05-09T05:21:18.907Z,9.50
2024-05-09T05:21:52.890Z,9.73
2024-05-09T05:22:26.837Z,10.27
2024-05-09T05:23:00.936Z,9.52
2024-05-09T05:23:35.107Z,9.07
2024-05-09T05:24:09.023Z,10.68
2024-05-09T05:24:44.186Z,9.40
2024-05-09T05:25:18.106Z,10.13
2024-05-09T05:25:54.748Z,10.18
2024-05-09T05:26:29.179Z,9.95
2024-05-09T05:27:03.128Z,8.88
2024-05-09T05:27:36.994Z,9.95
2024-05-09T05:28:11.203Z,10.32
2024-05-09T05:28:45.198Z,9.27
2024-05-09T05:29:20.934Z,9.25
2024-05-09T05:29:54.939Z,9.48
2024-05-09T05:30:32.966Z,9.63
2024-05-09T05:31:08.675Z,10.02
2024-05-09T05:31:42.620Z,9.18
2024-05-09T05:32:16.628Z,8.40
2024-05-09T05:32:51.020Z,9.05
2024-05-09T05:33:24.887Z,9.27
2024-05-09T05:33:59.063Z,8.15
2024-05-09T05:34:33.376Z,9.45
2024-05-09T05:35:07.293Z,7.60
2024-05-09T05:35:42.297Z,9.02
2024-05-09T05:36:16.196Z,7.78
2024-05-09T05:36:50.123Z,8.80
2024-05-09T05:37:23.949Z,9.15
2024-05-09T05:37:58.165Z,9.45
2024-05-09T05:38:32.090Z,8.57
2024-05-09T05:39:06.002Z,8.52
2024-05-09T05:39:39.951Z,8.98
2024-05-09T05:40:24.606Z,9.27
2024-05-09T05:41:02.194Z,8.95
2024-05-09T05:41:36.220Z,8.63
2024-05-09T05:42:10.177Z,10.27
2024-05-09T05:42:44.232Z,9.00
2024-05-09T05:43:19.565Z,9.25
2024-05-09T05:43:53.462Z,8.65
2024-05-09T05:44:27.489Z,9.63
2024-05-09T05:45:01.637Z,9.48
2024-05-09T05:45:35.637Z,9.10
2024-05-09T05:46:09.400Z,9.65
2024-05-09T05:46:43.226Z,9.57
2024-05-09T05:47:17.143Z,8.43
2024-05-09T05:47:52.383Z,8.27
2024-05-09T05:48:26.530Z,8.82
2024-05-09T05:49:00.517Z,8.75
2024-05-09T05:49:35.160Z,8.88
2024-05-09T05:50:20.487Z,8.40
2024-05-09T05:51:03.621Z,9.15
2024-05-09T05:51:38.256Z,8.60
2024-05-09T05:52:12.976Z,8.30
2024-05-09T05:52:46.846Z,8.60
2024-05-09T05:53:21.097Z,9.00
2024-05-09T05:53:55.829Z,9.52
2024-05-09T05:54:29.761Z,8.18
2024-05-09T05:55:03.568Z,8.50
2024-05-09T05:55:38.238Z,7.93
2024-05-09T05:56:12.235Z,9.27
2024-05-09T05:56:46.313Z,9.43
2024-05-09T05:57:20.875Z,8.95
2024-05-09T05:57:54.741Z,8.35
2024-05-09T05:58:28.529Z,8.80
2024-05-09T05:59:02.417Z,8.27
2024-05-09T05:59:36.288Z,8.75
2024-05-09T06:00:17.971Z,9.02
2024-05-09T06:00:55.380Z,8.27
2024-05-09T06:01:29.509Z,8.27
2024-05-09T06:02:03.580Z,8.93
2024-05-09T06:02:37.744Z,9.27
2024-05-09T06:03:14.332Z,9.07
2024-05-09T06:03:48.650Z,9.43
2024-05-09T06:04:22.672Z,8.77
2024-05-09T06:04:56.544Z,10.02
2024-05-09T06:05:30.591Z,10.23
2024-05-09T06:06:04.743Z,9.48
2024-05-09T06:06:38.611Z,9.57
2024-05-09T06:07:12.566Z,8.88
2024-05-09T06:07:46.434Z,8.57
2024-05-09T06:08:20.340Z,9.27
2024-05-09T06:08:54.253Z,9.38
2024-05-09T06:09:28.557Z,8.77
2024-05-09T06:10:03.902Z,9.35
2024-05-09T06:10:40.993Z,9.20
2024-05-09T06:11:15.677Z,9.80
2024-05-09T06:11:49.721Z,8.05
2024-05-09T06:12:23.725Z,9.80
2024-05-09T06:12:57.522Z,9.20
2024-05-09T06:13:31.438Z,9.65
2024-05-09T06:14:06.281Z,8.60
2024-05-09T06:14:43.099Z,9.43
2024-05-09T06:15:16.981Z,9.60
2024-05-09T06:15:50.954Z,10.18
2024-05-09T06:16:24.787Z,10.32
2024-05-09T06:16:59.053Z,10.13
2024-05-09T06:17:33.023Z,9.48
2024-05-09T06:18:08.868Z,9.60
2024-05-09T06:18:43.222Z,10.27
2024-05-09T06:19:17.406Z,9.55
2024-05-09T06:19:51.398Z,9.48
2024-05-09T06:20:34.553Z,9.90
2024-05-09T06:21:11.189Z,10.02
2024-05-09T06:21:45.140Z,9.70
2024-05-09T06:22:19.246Z,9.85
2024-05-09T06:22:53.102Z,9.18
2024-05-09T06:23:27.006Z,9.65
2024-05-09T06:24:03.803Z,9.75
2024-05-09T06:24:39.215Z,9.25
2024-05-09T06:25:13.247Z,10.57
2024-05-09T06:25:47.083Z,9.25
2024-05-09T06:26:21.061Z,9.68
2024-05-09T06:26:54.907Z,9.57
2024-05-09T06:27:28.720Z,9.45
2024-05-09T06:28:03.114Z,10.68
2024-05-09T06:28:37.630Z,8.93
2024-05-09T06:29:11.968Z,9.40
2024-05-09T06:29:45.773Z,10.40
2024-05-09T06:30:56.203Z,9.00
2024-05-09T06:31:30.139Z,9.63
2024-05-09T06:32:04.245Z,9.63
2024-05-09T06:32:38.386Z,9.60
2024-05-09T06:33:15.339Z,9.90
2024-05-09T06:33:50.497Z,10.15
2024-05-09T06:34:24.665Z,9.02
2024-05-09T06:34:58.689Z,8.73
2024-05-09T06:35:32.830Z,9.23
2024-05-09T06:36:07.297Z,9.82
2024-05-09T06:36:42.178Z,9.35
2024-05-09T06:37:15.955Z,10.02
2024-05-09T06:37:49.891Z,9.07
2024-05-09T06:38:23.819Z,9.02
2024-05-09T06:38:57.670Z,9.40
2024-05-09T06:39:31.659Z,9.25
2024-05-09T06:40:07.549Z,8.68
2024-05-09T06:40:44.556Z,9.68
2024-05-09T06:41:18.770Z,10.15
2024-05-09T06:41:52.902Z,9.25
2024-05-09T06:42:26.830Z,9.63
2024-05-09T06:43:01.186Z,9.43
2024-05-09T06:43:35.843Z,10.55
2024-05-09T06:44:10.772Z,10.07
2024-05-09T06:44:44.744Z,10.43
2024-05-09T06:45:18.568Z,10.00
2024-05-09T06:45:55.982Z,8.90
2024-05-09T06:46:30.108Z,10.13
2024-05-09T06:47:04.026Z,9.18
2024-05-09T06:47:38.166Z,9.07
2024-05-09T06:48:12.806Z,11.18
2024-05-09T06:48:48.928Z,9.45
2024-05-09T06:49:23.032Z,8.65
2024-05-09T06:49:56.990Z,9.07
2024-05-09T06:50:36.874Z,8.90
2024-05-09T06:51:12.149Z,9.27
2024-05-09T06:51:46.154Z,8.75
2024-05-09T06:52:20.074Z,9.70
2024-05-09T06:52:54.008Z,10.27
2024-05-09T06:53:28.176Z,10.50
2024-05-09T06:54:02.189Z,9.48
2024-05-09T06:54:36.030Z,9.80
2024-05-09T06:55:10.052Z,9.82
2024-05-09T06:55:44.399Z,10.38
2024-05-09T06:56:18.275Z,9.25
2024-05-09T06:56:52.067Z,10.75
2024-05-09T06:57:25.943Z,9.27
2024-05-09T06:57:59.744Z,9.43
2024-05-09T06:58:33.519Z,9.77
2024-05-09T06:59:07.343Z,9.23
2024-05-09T06:59:41.206Z,9.52
2024-05-09T07:00:22.841Z,9.48
2024-05-09T07:01:05.303Z,8.98
2024-05-09T07:01:39.326Z,9.43
2024-05-09T07:02:13.483Z,9.70
2024-05-09T07:02:47.366Z,8.55
2024-05-09T07:03:21.628Z,9.52
2024-05-09T07:03:55.537Z,9.88
2024-05-09T07:04:29.517Z,9.30
2024-05-09T07:05:03.609Z,9.52
2024-05-09T07:05:38.790Z,9.60
2024-05-09T07:06:12.951Z,9.95
2024-05-09T07:06:46.895Z,9.10
2024-05-09T07:07:20.914Z,8.75
2024-05-09T07:07:54.836Z,8.65
2024-05-09T07:08:28.735Z,9.07
2024-05-09T07:09:02.621Z,8.93
2024-05-09T07:09:36.717Z,9.20
2024-05-09T07:10:17.756Z,9.43
2024-05-09T07:10:55.735Z,9.13
2024-05-09T07:11:29.713Z,9.88
2024-05-09T07:12:04.314Z,9.82
2024-05-09T07:12:38.204Z,8.65
2024-05-09T07:13:13.333Z,8.80
2024-05-09T07:13:47.412Z,9.60
2024-05-09T07:14:21.404Z,9.57
2024-05-09T07:14:55.272Z,8.32
2024-05-09T07:15:29.037Z,9.30
2024-05-09T07:16:03.045Z,8.93
2024-05-09T07:16:36.800Z,9.15
2024-05-09T07:17:10.741Z,8.73
2024-05-09T07:17:44.712Z,10.05
2024-05-09T07:18:21.849Z,8.38
2024-05-09T07:18:56.128Z,8.82
2024-05-09T07:19:30.190Z,9.48
2024-05-09T07:20:06.736Z,9.07
2024-05-09T07:20:42.242Z,9.95
2024-05-09T07:21:16.375Z,8.65
2024-05-09T07:21:51.904Z,8.18
2024-05-09T07:22:26.177Z,8.93
2024-05-09T07:22:59.997Z,10.10
2024-05-09T07:23:34.168Z,9.73
2024-05-09T07:24:08.172Z,8.85
2024-05-09T07:24:42.103Z,10.02
2024-05-09T07:25:16.143Z,8.43
2024-05-09T07:25:50.138Z,8.35
2024-05-09T07:26:24.122Z,8.77
2024-05-09T07:26:58.023Z,9.15
2024-05-09T07:27:32.050Z,9.45
2024-05-09T07:28:06.265Z,9.27
2024-05-09T07:28:39.992Z,9.13
2024-05-09T07:29:13.804Z,8.40
2024-05-09T07:29:47.619Z,9.40
2024-05-09T07:30:27.862Z,8.77
2024-05-09T07:31:40.461Z,8.50
2024-05-09T07:32:14.355Z,9.00
2024-05-09T07:32:48.473Z,9.40
2024-05-09T07:33:24.481Z,10.07
2024-05-09T07:33:59.526Z,8.73
2024-05-09T07:34:33.558Z,9.05
2024-05-09T07:35:07.604Z,9.00
2024-05-09T07:35:41.676Z,9.10
2024-05-09T07:36:15.526Z,9.30
2024-05-09T07:36:50.264Z,9.95
2024-05-09T07:37:24.144Z,9.48
2024-05-09T07:37:58.119Z,9.68
2024-05-09T07:38:32.204Z,8.45
2024-05-09T07:39:06.594Z,9.05